Como, MS (38619)

4:36 AM CST en Diciembre 22, 2014 (GMT -0600)
BHQ | Change Station
CLOSE
Current Station
Estación meteorológica personal
Location: Como, MS
Altura: 367 ft
Estaciones meteorológicas cercanas

Alt 367 ft 34.52 °N, 89.94 °W | Updated 14 minutes ago

Nublado
Nublado
48.2 ° F
Sensación térmica 48 ° F
N
2.7
Viento Variable Viento desde SSE

Hoy
Alta -- | Baja -- ° F
--% Posibilidad de precipitaciones
Ayer
Alta -- | Baja -- ° F
Precip. -- pul
7:02 AM 4:53 PM
Luna nueva, 0% visible
Presión 29.89 pul
Visibilidad 4.0 Millas
Nubes Nublado 300 ft
Vientos helados 48 ° F
Punto de rocío 48 ° F
Humedad 99%
Precipitaciones 0.00 pul
Espesor de la nieve No disponible.
UV 0 de una escala de 12
Polen .10 de una escala de 12
Calidad del aire No disponible.
Flu Activity No disponible.
METAR KUOX 221015Z AUTO 15008KT 4SM BR OVC003 08/08 A2989 RMK AO2 PWINO PNO

More Conditions Fewer Conditions

Presión 29.89 pul
Visibilidad 4.0 Millas
Nubes Nublado 300 ft
Vientos helados 48 ° F
Punto de rocío 48 ° F
Humedad 99%
Precipitaciones 0.00 pul
Espesor de la nieve No disponible.
UV 0 de una escala de 12
Polen .10 de una escala de 12
Calidad del aire No disponible.
Flu Activity No disponible.
METAR KUOX 221015Z AUTO 15008KT 4SM BR OVC003 08/08 A2989 RMK AO2 PWINO PNO

More Conditions Fewer Conditions

10-Day Weather Forecast

Almanac

Astronomía

Dec. 22, 2014 Salida Puesta
Hora real
Crepúsculo civil
Crepúsculo náutico
Crepúsculo astronómico
Luna
Horas de luz
Horas de luz
Tomorrow will be .
, % of the Moon is Illuminated

Extremos de hoy

Máximos del estado Bajos del estado

Community

WunderPhotos

Upload Photos

1,779,583 ¡fotos cargadas!

WunderBlogs® & News

Nearby

Calidad del aire

  Calidad del aire Índice AQ Contaminante
Not available.

Grosos de nieve

Estación Profundido Altura

Actividad de terremotos

Ciudad Distance Mag. Tiempo y dato
Magnitud mínima muestra es 2,5.

Temperaturas de aguas costeras

Lugar Temperatura

Estaciones meteorológicas cercanas